Time,TemperatureF,DewpointF,PressureIn,WindDirection,WindDirectionDegrees,WindSpeedMPH,WindSpeedGustMPH,Humidity,HourlyPrecipIn,Conditions,Clouds,dailyrainin,SoftwareType,DateUTC
2014-02-19 00:22:00,29.0,-99.9,-100.00,WNW,292,0.0,0.0,-999,0.00,,,-99.99,,2014-02-19 06:22:00,
2014-02-19 00:53:00,27.0,-99.9,-100.00,WNW,292,0.0,0.0,-999,0.00,,,-99.99,,2014-02-19 06:53:00,
2014-02-19 01:22:00,28.0,-99.9,-100.00,WNW,292,0.0,0.0,-999,0.00,,,-99.99,,2014-02-19 07:22:00,
2014-02-19 01:52:00,27.0,-99.9,-100.00,WNW,292,0.0,0.0,-999,0.00,,,-99.99,,2014-02-19 07:52:00,
2014-02-19 02:22:00,28.0,-99.9,-100.00,WNW,292,0.0,0.0,-999,0.00,,,-99.99,,2014-02-19 08:22:00,
2014-02-19 02:52:00,26.0,-99.9,-100.00,WNW,292,0.0,0.0,-999,0.00,,,-99.99,,2014-02-19 08:52:00,
2014-02-19 03:22:00,27.0,-99.9,-100.00,WNW,292,0.0,0.0,-999,0.00,,,-99.99,,2014-02-19 09:22:00,
2014-02-19 03:53:00,25.0,-99.9,-100.00,WNW,292,0.0,0.0,-999,0.00,,,-99.99,,2014-02-19 09:53:00,
2014-02-19 04:23:00,26.0,-99.9,-100.00,WNW,292,0.0,0.0,-999,0.00,,,-99.99,,2014-02-19 10:23:00,
2014-02-19 04:53:00,25.0,-99.9,-100.00,WNW,292,0.0,0.0,-999,0.00,,,-99.99,,2014-02-19 10:53:00,
2014-02-19 05:22:00,24.0,-99.9,-100.00,West,270,0.0,0.0,-999,0.00,,,-99.99,,2014-02-19 11:22:00,
2014-02-19 05:52:00,25.0,-99.9,-100.00,WNW,292,0.0,0.0,-999,0.00,,,-99.99,,2014-02-19 11:52:00,
2014-02-19 06:22:00,23.0,-99.9,-100.00,West,270,0.0,0.0,-999,0.00,,,-99.99,,2014-02-19 12:22:00,
2014-02-19 06:52:00,24.0,-99.9,-100.00,West,270,0.0,0.0,-999,0.00,,,-99.99,,2014-02-19 12:52:00,
2014-02-19 07:22:00,23.0,-99.9,-100.00,West,270,0.0,0.0,-999,0.00,,,-99.99,,2014-02-19 13:22:00,
2014-02-19 07:52:00,23.0,-99.9,-100.00,West,270,0.0,0.0,-999,0.00,,,-99.99,,2014-02-19 13:52:00,
2014-02-19 08:22:00,24.0,-99.9,-100.00,WSW,247,0.0,0.0,-999,0.00,,,-99.99,,2014-02-19 14:22:00,
2014-02-19 08:53:00,23.0,-99.9,-100.00,West,270,0.0,0.0,-999,0.00,,,-99.99,,2014-02-19 14:53:00,
2014-02-19 09:22:00,27.0,-99.9,-100.00,SW,225,0.0,0.0,-999,0.00,,,-99.99,,2014-02-19 15:22:00,
2014-02-19 09:54:00,25.0,-99.9,-100.00,WSW,247,0.0,0.0,-999,0.00,,,-99.99,,2014-02-19 15:54:00,
2014-02-19 10:24:00,25.0,-99.9,-100.00,WSW,247,0.0,0.0,-999,0.00,,,-99.99,,2014-02-19 16:24:00,
2014-02-19 10:53:00,28.0,-99.9,-100.00,SW,225,0.0,0.0,-999,0.00,,,-99.99,,2014-02-19 16:53:00,
2014-02-19 11:22:00,34.0,-99.9,-100.00,SW,225,0.0,0.0,-999,0.00,,,-99.99,,2014-02-19 17:22:00,
2014-02-19 11:53:00,30.0,-99.9,-100.00,SW,225,0.0,0.0,-999,0.00,,,-99.99,,2014-02-19 17:53:00,
2014-02-19 12:22:00,38.0,-99.9,-100.00,SSW,202,0.0,0.0,-999,0.00,,,-99.99,,2014-02-19 18:22:00,
2014-02-19 12:53:00,34.0,-99.9,-100.00,SW,225,0.0,0.0,-999,0.00,,,-99.99,,2014-02-19 18:53:00,
2014-02-19 13:22:00,39.0,-99.9,-100.00,South,180,0.0,0.0,-999,0.00,,,-99.99,,2014-02-19 19:22:00,
2014-02-19 13:52:00,40.0,-99.9,-100.00,South,180,0.0,0.0,-999,0.00,,,-99.99,,2014-02-19 19:52:00,
2014-02-19 14:22:00,40.0,-99.9,-100.00,South,180,0.0,0.0,-999,0.00,,,-99.99,,2014-02-19 20:22:00,
2014-02-19 14:52:00,39.0,-99.9,-100.00,South,180,0.0,0.0,-999,0.00,,,-99.99,,2014-02-19 20:52:00,
2014-02-19 15:22:00,40.0,-99.9,-100.00,South,180,0.0,0.0,-999,0.00,,,-99.99,,2014-02-19 21:22:00,
2014-02-19 15:54:00,40.0,-99.9,-100.00,South,180,0.0,0.0,-999,0.00,,,-99.99,,2014-02-19 21:54:00,
2014-02-19 16:24:00,40.0,-99.9,-100.00,South,180,0.0,0.0,-999,0.00,,,-99.99,,2014-02-19 22:24:00,
2014-02-19 16:53:00,40.0,-99.9,-100.00,South,180,0.0,0.0,-999,0.00,,,-99.99,,2014-02-19 22:53:00,
2014-02-19 17:22:00,41.0,-99.9,-100.00,South,180,0.0,0.0,-999,0.00,,,-99.99,,2014-02-19 23:22:00,
2014-02-19 17:53:00,41.0,-99.9,-100.00,South,180,0.0,0.0,-999,0.00,,,-99.99,,2014-02-19 23:53:00,
2014-02-19 18:22:00,39.0,-99.9,-100.00,South,180,0.0,0.0,-999,0.00,,,-99.99,,2014-02-20 00:22:00,
2014-02-19 18:53:00,39.0,-99.9,-100.00,South,180,0.0,0.0,-999,0.00,,,-99.99,,2014-02-20 00:53:00,
2014-02-19 19:22:00,37.0,-99.9,-100.00,SSW,198,0.0,0.0,-999,0.00,,,-99.99,,2014-02-20 01:22:00,
2014-02-19 19:52:00,37.0,-99.9,-100.00,SSW,202,0.0,0.0,-999,0.00,,,-99.99,,2014-02-20 01:52:00,
2014-02-19 20:22:00,37.0,-99.9,-100.00,South,186,0.0,0.0,-999,0.00,,,-99.99,,2014-02-20 02:22:00,
2014-02-19 21:22:00,34.0,-99.9,-100.00,SW,225,0.0,0.0,-999,0.00,,,-99.99,,2014-02-20 03:22:00,
2014-02-19 21:53:00,34.0,-99.9,-100.00,SW,225,0.0,0.0,-999,0.00,,,-99.99,,2014-02-20 03:53:00,
2014-02-19 22:24:00,35.0,-99.9,-100.00,SW,225,0.0,0.0,-999,0.00,,,-99.99,,2014-02-20 04:24:00,
2014-02-19 22:53:00,34.0,-99.9,-100.00,SW,225,0.0,0.0,-999,0.00,,,-99.99,,2014-02-20 04:53:00,
2014-02-19 23:23:00,33.0,-99.9,-100.00,SW,225,0.0,0.0,-999,0.00,,,-99.99,,2014-02-20 05:23:00,
2014-02-19 23:53:00,33.0,-99.9,-100.00,SW,225,0.0,0.0,-999,0.00,,,-99.99,,2014-02-20 05:53:00,